sensor_id;sensor_type;location;lat;lon;timestamp;P1;durP1;ratioP1;P2;durP2;ratioP2
40555;SDS011;26250;45.422;11.100;2022-10-16T16:20:09;43.45;;;34.83;;
40555;SDS011;26250;45.422;11.100;2022-10-16T16:22:37;39.88;;;33.97;;
40555;SDS011;26250;45.422;11.100;2022-10-16T16:25:04;48.92;;;34.72;;
40555;SDS011;26250;45.422;11.100;2022-10-16T16:27:31;48.72;;;34.08;;
40555;SDS011;26250;45.422;11.100;2022-10-16T16:30:01;48.17;;;37.25;;
40555;SDS011;26250;45.422;11.100;2022-10-16T16:32:30;67.70;;;37.15;;
40555;SDS011;26250;45.422;11.100;2022-10-16T16:34:56;43.35;;;35.47;;
40555;SDS011;26250;45.422;11.100;2022-10-16T16:37:23;54.97;;;34.50;;
40555;SDS011;26250;45.422;11.100;2022-10-16T16:39:51;52.20;;;35.40;;
40555;SDS011;26250;45.422;11.100;2022-10-16T16:42:17;67.72;;;37.85;;
40555;SDS011;26250;45.422;11.100;2022-10-16T16:44:44;65.05;;;36.85;;
40555;SDS011;26250;45.422;11.100;2022-10-16T16:47:13;49.65;;;36.30;;
40555;SDS011;26250;45.422;11.100;2022-10-16T16:49:40;49.67;;;38.03;;
40555;SDS011;26250;45.422;11.100;2022-10-16T16:52:07;58.80;;;40.92;;
40555;SDS011;26250;45.422;11.100;2022-10-16T16:54:36;66.95;;;40.65;;
40555;SDS011;26250;45.422;11.100;2022-10-16T16:57:05;49.80;;;39.28;;
40555;SDS011;26250;45.422;11.100;2022-10-16T16:59:33;65.88;;;41.60;;
40555;SDS011;26250;45.422;11.100;2022-10-16T17:02:00;59.72;;;45.45;;
40555;SDS011;26250;45.422;11.100;2022-10-16T17:04:29;78.55;;;50.35;;
40555;SDS011;26250;45.422;11.100;2022-10-16T17:06:56;75.50;;;49.42;;
40555;SDS011;26250;45.422;11.100;2022-10-16T17:09:23;112.43;;;49.10;;
40555;SDS011;26250;45.422;11.100;2022-10-16T17:11:53;90.95;;;46.45;;
40555;SDS011;26250;45.422;11.100;2022-10-16T17:14:20;70.00;;;48.45;;
40555;SDS011;26250;45.422;11.100;2022-10-16T17:16:47;80.32;;;43.47;;
40555;SDS011;26250;45.422;11.100;2022-10-16T17:19:16;83.47;;;45.33;;
40555;SDS011;26250;45.422;11.100;2022-10-16T17:21:44;71.43;;;45.28;;
40555;SDS011;26250;45.422;11.100;2022-10-16T17:24:11;51.50;;;40.75;;
40555;SDS011;26250;45.422;11.100;2022-10-16T17:26:38;65.47;;;46.00;;
40555;SDS011;26250;45.422;11.100;2022-10-16T17:29:06;55.63;;;43.60;;
40555;SDS011;26250;45.422;11.100;2022-10-16T17:31:35;58.95;;;42.65;;
40555;SDS011;26250;45.422;11.100;2022-10-16T17:34:04;65.15;;;46.58;;
40555;SDS011;26250;45.422;11.100;2022-10-16T17:36:33;56.75;;;42.72;;
40555;SDS011;26250;45.422;11.100;2022-10-16T17:39:04;59.60;;;43.78;;
40555;SDS011;26250;45.422;11.100;2022-10-16T17:41:33;67.05;;;46.08;;
40555;SDS011;26250;45.422;11.100;2022-10-16T17:44:02;55.45;;;43.13;;
40555;SDS011;26250;45.422;11.100;2022-10-16T17:46:32;50.30;;;42.20;;
40555;SDS011;26250;45.422;11.100;2022-10-16T17:49:06;54.97;;;40.38;;
40555;SDS011;26250;45.422;11.100;2022-10-16T17:51:35;53.65;;;41.63;;
40555;SDS011;26250;45.422;11.100;2022-10-16T17:54:02;50.38;;;40.95;;
40555;SDS011;26250;45.422;11.100;2022-10-16T17:56:29;59.17;;;44.03;;
40555;SDS011;26250;45.422;11.100;2022-10-16T17:58:57;54.42;;;42.63;;
40555;SDS011;26250;45.422;11.100;2022-10-16T18:01:36;76.32;;;43.45;;
40555;SDS011;26250;45.422;11.100;2022-10-16T18:04:10;51.60;;;43.28;;
40555;SDS011;26250;45.422;11.100;2022-10-16T18:06:41;66.88;;;43.90;;
40555;SDS011;26250;45.422;11.100;2022-10-16T18:09:10;56.22;;;45.92;;
40555;SDS011;26250;45.422;11.100;2022-10-16T18:11:39;60.38;;;46.08;;
40555;SDS011;26250;45.422;11.100;2022-10-16T18:14:06;56.05;;;48.53;;
40555;SDS011;26250;45.422;11.100;2022-10-16T18:16:33;56.55;;;45.72;;
40555;SDS011;26250;45.422;11.100;2022-10-16T18:19:02;53.60;;;42.78;;
40555;SDS011;26250;45.422;11.100;2022-10-16T18:21:29;58.10;;;43.83;;
40555;SDS011;26250;45.422;11.100;2022-10-16T18:23:57;55.47;;;45.72;;
40555;SDS011;26250;45.422;11.100;2022-10-16T18:26:25;55.85;;;48.10;;
40555;SDS011;26250;45.422;11.100;2022-10-16T18:28:53;66.45;;;47.55;;
40555;SDS011;26250;45.422;11.100;2022-10-16T18:31:21;57.22;;;48.95;;
40555;SDS011;26250;45.422;11.100;2022-10-16T18:33:49;67.90;;;48.58;;
40555;SDS011;26250;45.422;11.100;2022-10-16T18:36:37;87.63;;;50.13;;
40555;SDS011;26250;45.422;11.100;2022-10-16T18:39:05;59.45;;;46.08;;
40555;SDS011;26250;45.422;11.100;2022-10-16T18:41:35;72.57;;;48.53;;
40555;SDS011;26250;45.422;11.100;2022-10-16T18:44:04;61.55;;;46.17;;
40555;SDS011;26250;45.422;11.100;2022-10-16T18:46:32;52.60;;;44.90;;
40555;SDS011;26250;45.422;11.100;2022-10-16T18:48:59;53.50;;;44.22;;
40555;SDS011;26250;45.422;11.100;2022-10-16T18:51:28;63.85;;;49.28;;
40555;SDS011;26250;45.422;11.100;2022-10-16T18:53:58;65.88;;;49.38;;
40555;SDS011;26250;45.422;11.100;2022-10-16T18:56:27;59.50;;;48.70;;
40555;SDS011;26250;45.422;11.100;2022-10-16T18:58:57;59.85;;;50.85;;
40555;SDS011;26250;45.422;11.100;2022-10-16T19:01:26;68.45;;;48.13;;
40555;SDS011;26250;45.422;11.100;2022-10-16T19:06:22;67.88;;;50.78;;
40555;SDS011;26250;45.422;11.100;2022-10-16T19:08:51;77.95;;;51.85;;
40555;SDS011;26250;45.422;11.100;2022-10-16T19:11:20;67.45;;;51.75;;
40555;SDS011;26250;45.422;11.100;2022-10-16T19:13:48;73.15;;;50.65;;
40555;SDS011;26250;45.422;11.100;2022-10-16T19:16:16;68.53;;;50.70;;
40555;SDS011;26250;45.422;11.100;2022-10-16T19:18:46;60.20;;;49.17;;
40555;SDS011;26250;45.422;11.100;2022-10-16T19:21:17;57.57;;;48.80;;
40555;SDS011;26250;45.422;11.100;2022-10-16T19:23:45;63.58;;;49.42;;
40555;SDS011;26250;45.422;11.100;2022-10-16T19:26:15;66.93;;;54.25;;
40555;SDS011;26250;45.422;11.100;2022-10-16T19:28:44;71.18;;;55.28;;
40555;SDS011;26250;45.422;11.100;2022-10-16T19:31:12;66.90;;;50.88;;
40555;SDS011;26250;45.422;11.100;2022-10-16T19:33:44;65.78;;;51.55;;
40555;SDS011;26250;45.422;11.100;2022-10-16T19:36:14;62.10;;;53.17;;
40555;SDS011;26250;45.422;11.100;2022-10-16T19:38:45;72.60;;;56.15;;
40555;SDS011;26250;45.422;11.100;2022-10-16T19:41:16;64.03;;;52.38;;
40555;SDS011;26250;45.422;11.100;2022-10-16T19:43:44;75.30;;;55.47;;
40555;SDS011;26250;45.422;11.100;2022-10-16T19:46:22;65.75;;;54.67;;
40555;SDS011;26250;45.422;11.100;2022-10-16T19:48:55;59.72;;;48.08;;
40555;SDS011;26250;45.422;11.100;2022-10-16T19:51:25;83.90;;;50.50;;
40555;SDS011;26250;45.422;11.100;2022-10-16T19:53:54;59.25;;;46.88;;
40555;SDS011;26250;45.422;11.100;2022-10-16T19:56:27;73.57;;;53.05;;
40555;SDS011;26250;45.422;11.100;2022-10-16T19:58:55;68.97;;;54.38;;
40555;SDS011;26250;45.422;11.100;2022-10-16T20:01:24;68.30;;;53.25;;
40555;SDS011;26250;45.422;11.100;2022-10-16T20:03:56;63.47;;;54.33;;
40555;SDS011;26250;45.422;11.100;2022-10-16T20:06:24;68.13;;;55.60;;
40555;SDS011;26250;45.422;11.100;2022-10-16T20:08:53;66.65;;;55.45;;
40555;SDS011;26250;45.422;11.100;2022-10-16T20:11:26;71.10;;;53.97;;
40555;SDS011;26250;45.422;11.100;2022-10-16T20:13:54;74.40;;;58.30;;
40555;SDS011;26250;45.422;11.100;2022-10-16T20:16:22;70.35;;;56.70;;
40555;SDS011;26250;45.422;11.100;2022-10-16T20:18:50;71.28;;;57.33;;
40555;SDS011;26250;45.422;11.100;2022-10-16T20:21:18;75.07;;;57.55;;
40555;SDS011;26250;45.422;11.100;2022-10-16T20:23:56;74.70;;;54.13;;
40555;SDS011;26250;45.422;11.100;2022-10-16T20:26:25;65.55;;;54.08;;
40555;SDS011;26250;45.422;11.100;2022-10-16T20:28:54;78.78;;;58.83;;
40555;SDS011;26250;45.422;11.100;2022-10-16T20:31:22;77.40;;;58.17;;
40555;SDS011;26250;45.422;11.100;2022-10-16T20:33:52;74.43;;;55.42;;
40555;SDS011;26250;45.422;11.100;2022-10-16T20:36:21;75.63;;;59.33;;
40555;SDS011;26250;45.422;11.100;2022-10-16T20:38:51;76.45;;;59.90;;
40555;SDS011;26250;45.422;11.100;2022-10-16T20:41:18;69.07;;;58.45;;
40555;SDS011;26250;45.422;11.100;2022-10-16T20:43:46;74.78;;;58.60;;
40555;SDS011;26250;45.422;11.100;2022-10-16T20:46:16;76.70;;;60.05;;
40555;SDS011;26250;45.422;11.100;2022-10-16T20:48:44;72.97;;;57.70;;
